Time;durP1;ratioP1;P1;durP2;ratioP2;P2;SDS_P1;SDS_P2;PMS_P1;PMS_P2;Temp;Humidity;BMP_temperature;BMP_pressure;BME280_temperature;BME280_humidity;BME280_pressure;Samples;Min_cycle;Max_cycle;Signal;HPM_P1;HPM_P2
2022/06/13 00:04:11;;;;;;;5.37;2.53;;;;;;;20.38;52.78;99868.00;7656465;32;40072;-73
2022/06/13 00:08:28;;;;;;;4.10;2.28;;;;;;;20.23;53.31;99861.09;7656309;32;37916;-73
2022/06/13 00:12:44;;;;;;;3.35;2.42;;;;;;;20.32;53.27;99868.56;7656633;32;37764;-74
2022/06/13 00:17:01;;;;;;;3.87;2.47;;;;;;;20.39;52.92;99861.31;7656465;32;40129;-73
2022/06/13 00:21:34;;;;;;;4.50;2.40;;;;;;;20.41;53.30;99852.69;7658857;32;39763;-73
2022/06/13 00:25:50;;;;;;;5.30;2.60;;;;;;;20.41;53.16;99842.41;7659521;32;37914;-73
2022/06/13 00:30:08;;;;;;;8.88;2.62;;;;;;;20.39;52.95;99838.38;7659587;32;37349;-74
2022/06/13 00:34:24;;;;;;;2.75;2.40;;;;;;;20.18;53.18;99833.63;7659647;32;39414;-74
2022/06/13 00:38:40;;;;;;;4.05;2.47;;;;;;;20.16;53.25;99830.38;7659574;32;40939;-74
2022/06/13 00:42:56;;;;;;;5.18;2.67;;;;;;;20.20;53.25;99828.56;7659303;32;38009;-74
2022/06/13 00:47:12;;;;;;;5.28;2.58;;;;;;;19.99;53.49;99817.44;7659426;32;37860;-74
2022/06/13 00:51:31;;;;;;;3.00;2.35;;;;;;;19.95;53.39;99823.97;7646086;32;40480;-74
2022/06/13 00:56:10;;;;;;;3.22;2.75;;;;;;;19.88;53.61;99818.97;7659501;32;39873;-74
2022/06/13 01:00:28;;;;;;;4.80;2.47;;;;;;;19.81;53.65;99816.72;7659115;32;37911;-73
2022/06/13 01:04:46;;;;;;;3.05;2.40;;;;;;;19.93;53.43;99810.47;7658201;32;37143;-73
2022/06/13 01:09:06;;;;;;;4.75;2.67;;;;;;;19.94;53.46;99811.28;7659176;32;40915;-74
2022/06/13 01:13:22;;;;;;;2.90;2.40;;;;;;;19.98;53.53;99801.19;7659057;32;39996;-73
2022/06/13 01:17:52;;;;;;;3.22;2.58;;;;;;;19.79;54.32;99799.66;7659128;32;37946;-74
2022/06/13 01:22:35;;;;;;;3.03;2.50;;;;;;;19.88;54.14;99791.31;7658975;32;36810;-73
2022/06/13 01:27:03;;;;;;;3.22;2.50;;;;;;;19.82;54.66;99787.94;7646603;32;39554;-74
2022/06/13 01:31:26;;;;;;;6.25;2.75;;;;;;;19.63;54.99;99782.78;7658176;32;40697;-74
2022/06/13 01:35:44;;;;;;;6.43;2.43;;;;;;;19.65;54.97;99788.00;7659041;32;37953;-74
2022/06/13 01:40:10;;;;;;;3.42;2.53;;;;;;;19.82;54.45;99779.63;7659067;32;36858;-74
2022/06/13 01:44:58;;;;;;;3.12;2.47;;;;;;;19.62;55.12;99778.41;7658961;32;39231;-73
2022/06/13 01:49:24;;;;;;;3.87;2.50;;;;;;;19.75;53.92;99773.81;7658533;32;39858;-73
2022/06/13 01:53:47;;;;;;;4.82;2.20;;;;;;;19.35;54.28;99785.19;7658138;32;38793;-73
2022/06/13 01:58:22;;;;;;;;;;;;;;;19.15;55.15;99786.72;7659188;32;37826;-73
2022/06/13 02:02:49;;;;;;;4.72;2.80;;;;;;;19.05;56.01;99785.09;7641892;32;39690;-73
2022/06/13 02:07:16;;;;;;;3.75;2.62;;;;;;;19.06;56.58;99777.66;7658590;32;41168;-73
2022/06/13 02:11:41;;;;;;;7.53;2.70;;;;;;;19.14;55.89;99774.84;7645975;32;38666;-73
2022/06/13 02:16:00;;;;;;;5.35;2.67;;;;;;;19.09;55.86;99782.50;7645361;32;37137;-73
2022/06/13 02:20:43;;;;;;;7.90;2.62;;;;;;;19.10;55.47;99776.62;7645410;32;39336;-74
2022/06/13 02:25:10;;;;;;;7.57;2.70;;;;;;;19.12;55.46;99776.31;7653830;32;40035;-73
2022/06/13 02:29:50;;;;;;;5.82;2.50;;;;;;;18.80;56.34;99785.94;7644873;32;38561;-74
2022/06/13 02:34:19;;;;;;;4.53;2.55;;;;;;;18.81;56.35;99776.53;7646374;32;36713;-73
2022/06/13 02:38:53;;;;;;;6.97;2.62;;;;;;;18.90;55.40;99780.94;7645414;32;40039;-74
2022/06/13 02:43:23;;;;;;;5.62;2.67;;;;;;;19.03;54.52;99776.34;7658211;32;39839;-74
2022/06/13 02:47:45;;;;;;;5.22;2.85;;;;;;;18.87;54.56;99778.03;7645203;32;38732;-74
2022/06/13 02:52:27;;;;;;;8.60;2.58;;;;;;;18.72;54.68;99773.78;7658171;32;38014;-73
2022/06/13 02:57:25;;;;;;;5.30;2.60;;;;;;;18.51;55.48;99779.16;7645219;32;39411;-73
2022/06/13 03:01:45;;;;;;;3.22;2.55;;;;;;;18.57;55.78;99777.84;7620727;32;39859;-73
2022/06/13 03:06:31;;;;;;;4.03;2.60;;;;;;;18.54;56.14;99776.56;7657866;32;37685;-73
2022/06/13 03:11:02;;;;;;;4.50;2.70;;;;;;;18.51;56.93;99773.63;7657800;32;37039;-73
2022/06/13 03:15:32;;;;;;;5.10;2.75;;;;;;;18.53;56.82;99772.16;7645710;32;39435;-74
2022/06/13 03:20:03;;;;;;;4.43;2.53;;;;;;;18.42;57.54;99772.81;7644884;32;39990;-74
2022/06/13 03:24:47;;;;;;;4.43;2.60;;;;;;;18.60;56.23;99777.19;7657639;32;37872;-74
2022/06/13 03:29:10;;;;;;;3.90;2.67;;;;;;;18.39;56.51;99766.81;7645394;32;37517;-74
2022/06/13 03:33:42;;;;;;;3.87;2.50;;;;;;;18.77;55.36;99765.31;7657592;32;39829;-74
2022/06/13 03:37:58;;;;;;;6.82;2.80;;;;;;;18.64;55.82;99767.09;7645564;32;40370;-74
2022/06/13 03:42:36;;;;;;;3.47;2.50;;;;;;;18.89;54.89;99762.72;7643751;32;37866;-74
2022/06/13 03:47:16;;;;;;;3.75;2.70;;;;;;;18.81;55.57;99771.81;7645856;32;36777;-74
2022/06/13 03:51:42;;;;;;;3.97;2.58;;;;;;;18.60;56.70;99771.66;7657126;32;39520;-73
2022/06/13 03:56:15;;;;;;;8.55;3.03;;;;;;;18.72;56.60;99773.78;7645976;32;40689;-74
2022/06/13 04:00:41;;;;;;;6.20;3.00;;;;;;;18.57;57.46;99762.09;7648093;32;37657;-73
2022/06/13 04:04:58;;;;;;;6.78;2.78;;;;;;;18.70;57.03;99759.50;7646993;32;37002;-73
2022/06/13 04:09:24;;;;;;;3.35;2.45;;;;;;;18.53;58.44;99758.34;7659892;32;39372;-73
2022/06/13 04:13:59;;;;;;;4.30;2.60;;;;;;;18.86;57.20;99757.06;7646730;32;40845;-73
2022/06/13 04:19:06;;;;;;;4.62;2.97;;;;;;;18.97;56.65;99763.03;7646669;32;37680;-81
2022/06/13 04:23:41;;;;;;;3.85;2.75;;;;;;;19.14;57.02;99757.44;7640349;32;37365;-85
2022/06/13 04:28:20;;;;;;;6.32;2.72;;;;;;;19.16;57.02;99754.34;7647865;32;39285;-83
2022/06/13 04:32:51;;;;;;;5.40;2.70;;;;;;;19.24;56.23;99764.59;7647515;32;39859;-82
2022/06/13 04:37:08;;;;;;;5.57;2.85;;;;;;;19.24;56.72;99768.16;7646644;32;38604;-81
2022/06/13 04:41:28;;;;;;;6.35;3.67;;;;;;;19.43;56.39;99766.94;7659512;32;37923;-79
2022/06/13 04:45:58;;;;;;;4.37;2.80;;;;;;;19.57;56.30;99766.72;7634205;32;40054;-79
2022/06/13 04:50:17;;;;;;;4.93;2.97;;;;;;;19.76;56.08;99772.66;7659688;32;39999;-72
2022/06/13 04:55:31;;;;;;;6.03;2.72;;;;;;;20.06;54.40;99767.13;7645996;32;36986;-71
2022/06/13 04:59:47;;;;;;;4.22;2.65;;;;;;;20.12;54.08;99763.00;7610060;32;37731;-71
2022/06/13 05:04:06;;;;;;;11.00;3.28;;;;;;;20.43;53.51;99762.59;7659487;32;39378;-72
2022/06/13 05:08:27;;;;;;;7.72;3.20;;;;;;;20.63;53.72;99766.53;7644724;32;40190;-70
2022/06/13 05:12:44;;;;;;;4.05;3.00;;;;;;;20.83;53.87;99772.34;7659326;32;38617;-71
2022/06/13 05:17:36;;;;;;;4.40;2.90;;;;;;;21.04;52.83;99769.56;7645991;32;37103;-71
2022/06/13 05:22:13;;;;;;;5.07;2.60;;;;;;;21.30;52.08;99776.72;7647824;32;39282;-73
2022/06/13 05:26:29;;;;;;;6.30;2.80;;;;;;;21.34;50.99;99769.38;7659156;32;40602;-78
2022/06/13 05:30:49;;;;;;;3.45;2.22;;;;;;;21.32;51.02;99775.25;7659012;32;37936;-77
2022/06/13 05:35:06;;;;;;;7.68;2.80;;;;;;;21.53;50.75;99779.94;7645924;32;36994;-76
2022/06/13 05:39:22;;;;;;;6.75;2.40;;;;;;;21.69;50.63;99755.06;7659050;32;40129;-77
2022/06/13 05:43:38;;;;;;;5.50;2.53;;;;;;;21.91;50.36;99751.00;7658529;32;40904;-78
2022/06/13 05:47:55;;;;;;;4.82;2.35;;;;;;;22.12;48.46;99751.66;7658383;32;38521;-77
2022/06/13 05:52:12;;;;;;;4.72;2.08;;;;;;;22.24;47.62;99741.69;7658435;32;37399;-76
2022/06/13 05:56:28;;;;;;;8.88;2.50;;;;;;;22.37;47.98;99746.06;7657669;32;39395;-77
2022/06/13 06:00:52;;;;;;;9.02;2.60;;;;;;;22.10;48.41;99747.63;7658866;32;39879;-79
2022/06/13 06:05:08;;;;;;;3.62;2.40;;;;;;;22.44;49.42;99746.28;7658822;32;37972;-79
2022/06/13 06:09:24;;;;;;;4.65;2.37;;;;;;;22.24;50.79;99748.03;7658534;32;37001;-81
2022/06/13 06:13:40;;;;;;;3.20;2.28;;;;;;;22.56;50.17;99744.59;7658798;32;38989;-69
2022/06/13 06:17:57;;;;;;;3.28;2.03;;;;;;;22.79;49.90;99742.87;7658284;32;40651;-69
2022/06/13 06:22:13;;;;;;;4.70;2.10;;;;;;;22.64;47.56;99749.19;7658525;32;37614;-83
2022/06/13 06:26:30;;;;;;;2.55;2.10;;;;;;;22.35;47.43;99742.81;7658504;32;37787;-82
2022/06/13 06:30:46;;;;;;;4.43;1.70;;;;;;;22.69;46.71;99748.94;7657913;32;40223;-69
2022/06/13 06:35:04;;;;;;;4.32;2.12;;;;;;;23.10;46.89;99740.53;7657801;32;41111;-68
2022/06/13 06:39:20;;;;;;;2.62;2.00;;;;;;;23.27;45.45;99734.63;7644581;32;37923;-67
2022/06/13 06:43:36;;;;;;;5.72;2.33;;;;;;;23.42;45.06;99731.03;7658117;32;37164;-81
2022/06/13 06:47:53;;;;;;;4.97;2.00;;;;;;;23.34;43.87;99740.34;7657409;32;40193;-80
2022/06/13 06:52:09;;;;;;;2.85;2.00;;;;;;;23.43;43.76;99745.72;7655180;32;39869;-69
2022/06/13 07:01:02;;;;;;;3.45;2.37;;;;;;;23.93;44.21;99741.37;7656387;32;37141;-70
2022/06/13 07:05:19;;;;;;;8.02;2.30;;;;;;;24.35;42.71;99740.69;7645979;32;38433;-70
2022/06/13 07:09:35;;;;;;;4.72;2.37;;;;;;;24.13;43.26;99747.78;7657704;32;40666;-78
2022/06/13 07:13:51;;;;;;;2.72;1.95;;;;;;;24.42;43.66;99739.22;7657757;32;37667;-70
2022/06/13 07:18:08;;;;;;;4.07;2.10;;;;;;;24.83;42.49;99736.88;7657626;32;37970;-70
2022/06/13 07:22:27;;;;;;;4.00;2.25;;;;;;;24.84;42.46;99741.28;7657801;32;38993;-70
2022/06/13 07:26:43;;;;;;;6.32;2.37;;;;;;;25.41;42.48;99727.56;7656965;32;39574;-70
2022/06/13 07:30:59;;;;;;;4.15;2.03;;;;;;;25.77;43.35;99722.53;7656650;32;38039;-76
2022/06/13 07:35:18;;;;;;;2.00;1.50;;;;;;;26.06;38.83;99712.59;7644159;32;37044;-74
2022/06/13 07:39:34;;;;;;;2.37;1.45;;;;;;;26.51;36.89;99716.34;7657622;32;39222;-74
2022/06/13 07:43:57;;;;;;;;;;;;;;;26.79;34.89;99709.47;7657511;32;40773;-73
2022/06/13 07:48:13;;;;;;;9.75;1.77;;;;;;;26.99;38.84;99712.84;7652142;32;38351;-72
2022/06/13 07:52:31;;;;;;;2.55;1.73;;;;;;;26.49;36.81;99704.75;7639528;32;37081;-72
2022/06/13 07:56:47;;;;;;;2.85;1.65;;;;;;;26.87;36.81;99702.78;7633419;32;40959;-72
2022/06/13 08:01:06;;;;;;;2.20;1.67;;;;;;;27.19;35.16;99701.47;7629964;32;40129;-73
2022/06/13 08:05:22;;;;;;;5.50;1.70;;;;;;;27.15;34.32;99710.63;7630541;32;37832;-72
2022/06/13 08:09:39;;;;;;;5.22;1.45;;;;;;;27.40;33.79;99710.03;7648409;32;37813;-73
2022/06/13 08:13:55;;;;;;;4.35;1.70;;;;;;;27.60;32.99;99696.59;7648899;32;39193;-72
2022/06/13 08:18:13;;;;;;;4.07;1.70;;;;;;;27.69;32.89;99685.06;7648950;32;41097;-72
2022/06/13 08:22:29;;;;;;;3.78;1.70;;;;;;;27.72;32.50;99681.47;7655991;32;38483;-71
2022/06/13 08:26:46;;;;;;;2.00;1.60;;;;;;;28.02;30.02;99678.44;7643756;32;37648;-72
2022/06/13 08:31:17;;;;;;;10.68;2.37;;;;;;;28.13;29.85;99684.12;7654871;32;40157;-72
2022/06/13 08:35:34;;;;;;;4.60;1.80;;;;;;;28.16;32.34;99690.91;7655695;32;40010;-72
2022/06/13 08:39:50;;;;;;;3.08;1.95;;;;;;;28.23;30.61;99699.34;7654942;32;39457;-71
2022/06/13 08:44:06;;;;;;;5.85;2.60;;;;;;;28.05;30.01;99694.47;7659288;32;37241;-71
2022/06/13 08:48:38;;;;;;;4.55;1.90;;;;;;;28.16;34.04;99693.72;7658487;32;39271;-72
2022/06/13 08:53:12;;;;;;;2.67;1.65;;;;;;;28.35;30.67;99699.00;7658989;32;39725;-71
2022/06/13 08:57:32;;;;;;;1.90;1.70;;;;;;;28.18;31.09;99691.31;7658794;32;38708;-71
2022/06/13 09:01:55;;;;;;;3.28;1.70;;;;;;;28.63;30.47;99675.06;7657962;32;37104;-72
2022/06/13 09:06:27;;;;;;;2.90;2.12;;;;;;;28.72;30.46;99660.66;7659068;32;39831;-71
2022/06/13 09:10:51;;;;;;;;;;;;;;;28.82;30.56;99666.31;7644456;32;41172;-71
2022/06/13 09:15:13;;;;;;;7.32;2.20;;;;;;;28.71;31.30;99665.47;7632801;32;39052;-71
2022/06/13 09:20:00;;;;;;;4.07;2.20;;;;;;;28.80;32.01;99668.72;7619624;32;36874;-70
2022/06/13 09:24:32;;;;;;;4.75;2.03;;;;;;;28.63;29.33;99661.03;7652454;32;40277;-70
2022/06/13 09:28:54;;;;;;;5.22;2.22;;;;;;;28.37;30.88;99643.37;7657107;32;38100;-70
2022/06/13 09:33:26;;;;;;;4.72;2.40;;;;;;;28.89;30.44;99639.44;7657553;32;38701;-70
2022/06/13 09:37:56;;;;;;;7.37;2.00;;;;;;;29.04;29.06;99635.44;7646501;32;37158;-71
2022/06/13 09:42:15;;;;;;;5.30;1.70;;;;;;;28.78;29.08;99640.22;7659120;32;39445;-72
2022/06/13 09:47:03;;;;;;;5.68;2.40;;;;;;;29.23;26.53;99639.06;7659099;32;40739;-71
2022/06/13 09:51:49;;;;;;;5.40;2.87;;;;;;;28.78;26.79;99623.41;7632771;32;37744;-70
2022/06/13 09:56:08;;;;;;;4.25;1.73;;;;;;;28.88;28.92;99629.44;7657784;32;37103;-70
2022/06/13 10:00:24;;;;;;;4.57;2.25;;;;;;;29.19;30.75;99623.03;7659067;32;39399;-70
2022/06/13 10:05:22;;;;;;;3.28;1.98;;;;;;;29.31;26.23;99610.59;7658804;32;40796;-70
2022/06/13 10:09:48;;;;;;;2.62;1.70;;;;;;;29.64;27.43;99616.94;7658388;32;37906;-70
2022/06/13 10:14:29;;;;;;;2.35;1.60;;;;;;;29.86;26.78;99600.81;7645675;32;37977;-70
2022/06/13 10:19:03;;;;;;;11.00;3.30;;;;;;;30.12;27.90;99598.69;7658799;32;40114;-70
2022/06/13 10:23:48;;;;;;;4.05;2.10;;;;;;;30.55;28.27;99594.84;7658607;32;40023;-71
2022/06/13 10:28:27;;;;;;;4.05;1.87;;;;;;;30.11;26.53;99594.28;7658491;32;38844;-71
2022/06/13 10:33:04;;;;;;;4.40;2.37;;;;;;;30.38;25.66;99590.94;7637256;32;37661;-70
2022/06/13 10:37:49;;;;;;;5.97;2.47;;;;;;;29.91;27.37;99589.16;7658575;32;39409;-71
2022/06/13 10:42:09;;;;;;;3.22;2.25;;;;;;;29.82;27.88;99588.81;7653614;32;38652;-71
2022/06/13 10:46:26;;;;;;;2.92;1.95;;;;;;;29.81;28.19;99578.78;7645273;32;37841;-71
2022/06/13 10:50:46;;;;;;;8.55;3.70;;;;;;;30.33;27.85;99572.47;7658241;32;37930;-71
2022/06/13 10:55:19;;;;;;;3.30;2.10;;;;;;;30.08;27.34;99581.03;7645642;32;40319;-70
2022/06/13 10:59:37;;;;;;;7.50;2.60;;;;;;;29.84;26.91;99560.28;7644316;32;40539;-70
2022/06/13 11:04:03;;;;;;;3.12;2.10;;;;;;;30.08;28.09;99558.56;7639248;32;37640;-70
2022/06/13 11:08:20;;;;;;;10.23;4.05;;;;;;;30.00;28.09;99549.38;7636404;32;37738;-70
2022/06/13 11:12:51;;;;;;;4.47;2.40;;;;;;;30.89;30.04;99541.50;7605170;32;39402;-70
2022/06/13 11:31:21;;;;;;;3.95;2.50;;;;;;;30.38;32.30;99523.47;7629943;32;40047;-72
2022/06/13 11:35:45;;;;;;;4.87;2.35;;;;;;;31.10;30.39;99506.75;7629414;32;42631;-72
2022/06/13 11:40:15;;;;;;;4.60;2.83;;;;;;;31.61;29.80;99509.78;7631119;32;38654;-72
2022/06/13 11:44:38;;;;;;;3.85;2.58;;;;;;;32.01;28.61;99507.22;7631296;32;37093;-73
2022/06/13 11:48:56;;;;;;;4.28;2.20;;;;;;;31.13;28.63;99502.28;7631074;32;40471;-71
2022/06/13 11:58:19;;;;;;;5.72;2.60;;;;;;;31.57;30.68;99478.06;7622234;32;37956;-71
2022/06/13 12:02:47;;;;;;;8.15;3.10;;;;;;;32.01;29.18;99479.03;7630824;32;37118;-71
2022/06/13 12:07:04;;;;;;;6.30;2.75;;;;;;;31.60;29.74;99482.84;7618842;32;40198;-72
2022/06/13 12:11:22;;;;;;;6.03;2.35;;;;;;;31.11;29.48;99485.81;7656542;32;40741;-72
2022/06/13 12:15:47;;;;;;;6.00;2.92;;;;;;;31.31;29.75;99471.91;7657653;32;37828;-71
2022/06/13 12:20:05;;;;;;;5.30;2.50;;;;;;;31.02;29.62;99489.13;7647115;32;37673;-81
2022/06/13 12:24:44;;;;;;;4.30;2.40;;;;;;;31.12;30.41;99481.00;7659846;32;38453;-86
2022/06/13 12:29:16;;;;;;;3.80;2.80;;;;;;;31.21;31.30;99484.09;7659632;32;40555;-70
2022/06/13 12:33:50;;;;;;;5.37;3.30;;;;;;;31.43;29.71;99474.16;7659828;32;38701;-69
2022/06/13 12:38:27;;;;;;;7.80;3.10;;;;;;;31.01;31.78;99484.72;7660054;32;37855;-71
2022/06/13 12:42:58;;;;;;;7.50;3.08;;;;;;;30.38;33.83;99484.09;7659788;32;40170;-71
2022/06/13 12:47:23;;;;;;;6.78;3.05;;;;;;;30.29;34.92;99496.59;7621030;32;40755;-73
2022/06/13 12:51:39;;;;;;;8.50;3.05;;;;;;;29.83;34.65;99483.63;7652250;32;38034;-74
2022/06/13 12:56:20;;;;;;;6.70;3.15;;;;;;;29.66;35.10;99496.53;7659351;32;37103;-71
2022/06/13 13:00:50;;;;;;;6.60;3.67;;;;;;;29.36;34.93;99500.69;7646952;32;40043;-73
2022/06/13 13:05:23;;;;;;;5.97;3.10;;;;;;;29.19;35.41;99488.31;7647171;32;39967;-69
2022/06/13 13:10:01;;;;;;;4.80;3.22;;;;;;;29.72;34.29;99489.28;7659076;32;37718;-74
2022/06/13 13:14:45;;;;;;;11.38;3.58;;;;;;;28.57;38.15;99497.22;7659156;32;37245;-73
2022/06/13 13:19:17;;;;;;;4.45;3.28;;;;;;;28.05;38.28;99492.75;7659479;32;39335;-73
2022/06/13 13:24:05;;;;;;;8.10;3.22;;;;;;;28.53;39.27;99490.75;7633293;32;40917;-73
2022/06/13 13:28:39;;;;;;;6.28;2.80;;;;;;;28.57;37.31;99494.41;7633962;32;37853;-72
2022/06/13 13:33:14;;;;;;;4.70;2.95;;;;;;;28.41;36.16;99495.59;7658232;32;37761;-73
2022/06/13 13:37:44;;;;;;;5.22;2.72;;;;;;;28.63;37.48;99487.19;7657756;32;39133;-71
2022/06/13 13:42:05;;;;;;;5.07;2.72;;;;;;;29.25;36.40;99488.69;7657959;32;40809;-71
2022/06/13 13:46:29;;;;;;;6.87;2.67;;;;;;;29.19;37.13;99479.09;7658784;32;38641;-72
2022/06/13 13:50:53;;;;;;;2.83;2.50;;;;;;;28.75;36.79;99484.00;7658907;32;37152;-70
2022/06/13 13:55:15;;;;;;;4.85;2.60;;;;;;;28.16;38.12;99481.56;7645957;32;39348;-72
2022/06/13 13:59:38;;;;;;;5.30;2.40;;;;;;;28.61;36.06;99478.38;7658236;32;40025;-71
2022/06/13 14:04:39;;;;;;;5.00;2.30;;;;;;;28.77;35.44;99470.34;7645319;32;38666;-72
2022/06/13 14:08:57;;;;;;;2.50;2.08;;;;;;;28.61;35.58;99478.38;7655773;32;37140;-72
2022/06/13 14:13:16;;;;;;;2.78;2.15;;;;;;;27.91;34.87;99479.53;7644843;32;38279;-70
2022/06/13 14:17:46;;;;;;;4.07;1.98;;;;;;;28.50;35.32;99461.53;7630240;32;39623;-72
2022/06/13 14:22:14;;;;;;;4.90;1.90;;;;;;;28.50;33.97;99461.53;7644954;32;37807;-72
2022/06/13 14:26:56;;;;;;;6.15;2.40;;;;;;;29.02;35.23;99463.88;7653918;32;37778;-71
2022/06/13 14:31:13;;;;;;;3.95;2.17;;;;;;;28.64;34.39;99458.75;7656338;32;40478;-71
2022/06/13 14:35:52;;;;;;;3.37;1.95;;;;;;;28.53;35.12;99454.31;7655844;32;40730;-71
2022/06/13 14:40:11;;;;;;;2.80;1.58;;;;;;;29.07;35.02;99440.22;7656657;32;37882;-71
2022/06/13 14:44:47;;;;;;;3.87;2.05;;;;;;;29.17;34.66;99439.41;7643754;32;37663;-72
2022/06/13 14:49:10;;;;;;;4.05;1.87;;;;;;;28.82;35.41;99438.28;7657466;32;39446;-72
2022/06/13 14:53:31;;;;;;;3.75;1.90;;;;;;;29.06;34.63;99436.59;7643358;32;40734;-71
2022/06/13 14:57:49;;;;;;;4.53;2.20;;;;;;;28.79;34.17;99447.53;7655683;32;37905;-72
2022/06/13 15:02:14;;;;;;;2.10;1.90;;;;;;;28.77;33.82;99458.31;7656733;32;37239;-71
2022/06/13 15:07:09;;;;;;;4.15;2.05;;;;;;;28.70;34.95;99473.19;7656426;32;40155;-71
2022/06/13 15:11:25;;;;;;;1.55;1.45;;;;;;;29.08;34.96;99465.06;7656983;32;40073;-71
2022/06/13 15:15:42;;;;;;;2.25;1.60;;;;;;;29.44;31.99;99473.38;7649599;32;37828;-72
2022/06/13 15:20:01;;;;;;;3.25;1.48;;;;;;;29.89;31.85;99465.16;7657687;32;35238;-72
2022/06/13 15:24:18;;;;;;;1.85;1.50;;;;;;;29.52;31.85;99468.53;7655994;32;41154;-71
2022/06/13 15:29:05;;;;;;;3.25;1.80;;;;;;;29.39;31.62;99465.41;7655239;32;39926;-73
2022/06/13 15:33:22;;;;;;;5.25;1.70;;;;;;;30.02;31.80;99445.78;7645414;32;38534;-73
2022/06/13 15:37:42;;;;;;;4.85;1.60;;;;;;;30.19;32.07;99441.25;7656513;32;37808;-72
2022/06/13 15:42:10;;;;;;;1.92;1.40;;;;;;;30.20;32.80;99439.22;7643807;32;39413;-72
2022/06/13 15:46:50;;;;;;;3.37;1.65;;;;;;;29.91;30.17;99443.06;7657038;32;39871;-72
2022/06/13 15:51:31;;;;;;;3.00;1.40;;;;;;;30.14;31.80;99438.88;7656034;32;37717;-71
2022/06/13 15:55:48;;;;;;;1.48;1.37;;;;;;;30.16;30.58;99450.50;7636135;32;37016;-72
2022/06/13 16:00:10;;;;;;;2.42;1.42;;;;;;;29.34;31.79;99446.16;7655168;32;40167;-73
2022/06/13 16:04:28;;;;;;;1.48;1.20;;;;;;;29.44;31.65;99450.91;7655498;32;39906;-72
2022/06/13 16:08:48;;;;;;;3.47;1.45;;;;;;;28.88;32.99;99458.31;7654868;32;38162;-72
2022/06/13 16:13:06;;;;;;;1.83;1.17;;;;;;;28.69;34.32;99451.94;7641914;32;37173;-73
2022/06/13 16:17:35;;;;;;;1.62;1.30;;;;;;;28.76;33.72;99443.50;7635252;32;39998;-74
2022/06/13 16:21:57;;;;;;;3.90;1.70;;;;;;;28.62;33.86;99440.75;7656558;32;40538;-75
2022/06/13 16:26:18;;;;;;;3.42;1.40;;;;;;;27.75;34.85;99448.22;7654995;32;37915;-74
2022/06/13 16:30:37;;;;;;;4.40;1.45;;;;;;;27.58;34.69;99458.22;7654893;32;37793;-74
2022/06/13 16:34:55;;;;;;;3.62;1.45;;;;;;;27.62;35.07;99447.03;7629556;32;38484;-74
2022/06/13 16:39:14;;;;;;;2.72;1.75;;;;;;;28.09;34.83;99440.31;7655563;32;39884;-74
2022/06/13 16:43:34;;;;;;;3.72;1.50;;;;;;;28.20;35.32;99442.31;7655470;32;38883;-74
2022/06/13 16:47:52;;;;;;;5.00;2.00;;;;;;;28.06;35.95;99443.94;7642152;32;37128;-74
2022/06/13 16:52:14;;;;;;;2.95;1.73;;;;;;;27.88;37.23;99459.87;7653648;32;39915;-73
2022/06/13 16:56:35;;;;;;;5.07;1.50;;;;;;;27.38;37.82;99468.13;7640765;32;39942;-74
2022/06/13 17:01:05;;;;;;;2.92;1.77;;;;;;;26.94;38.40;99475.47;7642791;32;38004;-74
2022/06/13 17:05:47;;;;;;;3.65;1.70;;;;;;;26.64;39.50;99481.28;7659092;32;36536;-74
2022/06/13 17:10:07;;;;;;;2.33;1.70;;;;;;;26.51;39.90;99477.94;7646336;32;39279;-74
2022/06/13 17:14:35;;;;;;;11.05;2.15;;;;;;;26.31;41.23;99499.75;7638049;32;40778;-72
2022/06/13 17:18:57;;;;;;;5.37;1.50;;;;;;;25.66;40.27;99515.78;7658968;32;37881;-73
2022/06/13 17:23:15;;;;;;;2.72;1.10;;;;;;;25.53;38.69;99556.31;7644593;32;36121;-77
2022/06/13 17:32:07;;;;;;;3.40;1.02;;;;;;;25.29;38.90;99589.06;7646246;32;39628;-79
2022/06/13 17:36:24;;;;;;;2.53;0.95;;;;;;;25.59;39.49;99593.84;7658532;32;38703;-77
2022/06/13 17:40:43;;;;;;;1.80;1.20;;;;;;;25.24;39.46;99618.06;7658351;32;37437;-71
2022/06/13 17:45:04;;;;;;;2.53;0.90;;;;;;;24.96;40.63;99628.75;7658028;32;39351;-70
2022/06/13 17:49:20;;;;;;;7.47;1.50;;;;;;;24.79;40.98;99630.09;7658550;32;39863;-71
2022/06/13 17:53:36;;;;;;;4.28;1.20;;;;;;;24.20;44.77;99646.88;7658512;32;37914;-71
2022/06/13 17:57:53;;;;;;;3.28;1.00;;;;;;;24.12;46.80;99632.00;7658279;32;37154;-71
2022/06/13 18:02:10;;;;;;;5.40;1.42;;;;;;;23.62;51.26;99648.41;7658392;32;40095;-72
2022/06/13 18:06:27;;;;;;;6.32;1.60;;;;;;;23.75;50.07;99651.06;7657738;32;39875;-71
2022/06/13 18:10:43;;;;;;;7.00;1.73;;;;;;;23.49;51.59;99630.25;7628413;32;37651;-71
2022/06/13 18:14:59;;;;;;;3.90;1.30;;;;;;;23.50;52.33;99639.41;7643270;32;36895;-71
2022/06/13 18:19:19;;;;;;;1.60;1.30;;;;;;;23.18;52.66;99662.50;7655629;32;39458;-70
2022/06/13 18:23:38;;;;;;;3.17;1.40;;;;;;;23.06;53.60;99648.72;7658729;32;39661;-71
2022/06/13 18:27:59;;;;;;;;;;;;;;;23.06;53.94;99654.25;7651648;32;233271;-71
2022/06/13 18:32:15;;;;;;;2.92;1.52;;;;;;;22.76;53.51;99668.56;7658701;32;37624;-71
2022/06/13 18:36:32;;;;;;;2.05;1.48;;;;;;;22.57;54.33;99676.78;7657315;32;40062;-80
2022/06/13 18:40:48;;;;;;;4.22;1.37;;;;;;;22.63;55.16;99698.38;7655088;32;39918;-80
2022/06/13 18:45:05;;;;;;;4.53;1.80;;;;;;;22.79;54.61;99703.16;7630352;32;38021;-80
2022/06/13 18:49:21;;;;;;;5.30;1.42;;;;;;;22.66;54.82;99741.31;7631705;32;36984;-73
2022/06/13 18:53:38;;;;;;;3.53;1.55;;;;;;;22.68;55.30;99761.22;7636456;32;39982;-71
2022/06/13 18:57:54;;;;;;;3.80;1.60;;;;;;;22.43;56.22;99786.31;7657027;32;40914;-71
2022/06/13 19:02:12;;;;;;;1.62;1.40;;;;;;;22.12;55.58;99795.25;7656503;32;37960;-72
2022/06/13 19:06:29;;;;;;;4.75;1.62;;;;;;;21.33;56.61;99804.56;7643900;32;37314;-72
2022/06/13 19:10:46;;;;;;;2.78;1.90;;;;;;;20.94;56.96;99815.12;7657063;32;40836;-71
2022/06/13 19:15:07;;;;;;;1.77;1.30;;;;;;;20.89;57.22;99806.22;7656969;32;40831;-70
2022/06/13 19:19:24;;;;;;;2.22;1.60;;;;;;;20.97;56.17;99803.34;7656781;32;38585;-70
2022/06/13 19:23:40;;;;;;;3.83;1.80;;;;;;;20.97;55.84;99842.16;7642389;32;37125;-72
2022/06/13 19:27:57;;;;;;;5.32;1.40;;;;;;;20.92;56.36;99836.81;7656262;32;40218;-71
2022/06/13 19:32:17;;;;;;;3.10;1.70;;;;;;;20.94;56.27;99823.44;7643076;32;39710;-69
2022/06/13 19:36:33;;;;;;;2.83;1.48;;;;;;;20.89;56.23;99829.19;7643830;32;38561;-70
2022/06/13 19:40:53;;;;;;;5.93;1.45;;;;;;;20.92;55.83;99822.12;7656313;32;37830;-71
2022/06/13 19:45:10;;;;;;;2.20;1.45;;;;;;;20.86;55.86;99804.94;7656526;32;40074;-71
2022/06/13 19:49:26;;;;;;;3.92;1.58;;;;;;;21.02;55.80;99802.31;7656127;32;41124;-72
2022/06/13 19:53:45;;;;;;;1.45;1.27;;;;;;;20.87;55.50;99808.50;7655177;32;37905;-71
2022/06/13 19:58:02;;;;;;;4.35;1.58;;;;;;;20.88;56.11;99810.13;7644093;32;36841;-70
2022/06/13 20:02:18;;;;;;;2.45;1.30;;;;;;;20.92;55.50;99828.50;7654176;32;39282;-70
2022/06/13 20:11:18;;;;;;;3.17;1.20;;;;;;;21.01;54.85;99845.84;7653223;32;37579;-70
2022/06/13 20:15:35;;;;;;;2.45;1.40;;;;;;;20.85;55.17;99839.31;7654568;32;37280;-71
2022/06/13 20:19:52;;;;;;;3.75;1.62;;;;;;;20.70;55.68;99845.50;7656645;32;39301;-72
2022/06/13 20:24:14;;;;;;;4.10;1.70;;;;;;;20.66;55.83;99858.38;7642638;32;40789;-71
2022/06/13 20:28:30;;;;;;;2.97;1.40;;;;;;;20.67;55.75;99860.03;7656127;32;37925;-70
2022/06/13 20:32:47;;;;;;;2.70;1.30;;;;;;;20.50;56.18;99860.91;7655967;32;37327;-71
2022/06/13 20:37:07;;;;;;;3.53;1.50;;;;;;;20.47;55.88;99862.41;7643504;32;39863;-71
2022/06/13 20:41:23;;;;;;;4.10;1.52;;;;;;;20.52;55.57;99853.09;7659650;32;40766;-70
2022/06/13 20:45:41;;;;;;;2.95;1.50;;;;;;;20.35;55.81;99852.06;7659336;32;37948;-70
2022/06/13 20:49:58;;;;;;;2.70;1.58;;;;;;;20.13;56.22;99855.94;7659366;32;37164;-71
2022/06/13 20:54:15;;;;;;;4.70;1.50;;;;;;;20.01;56.58;99875.22;7659430;32;39394;-71
2022/06/13 20:58:32;;;;;;;2.50;1.52;;;;;;;19.78;57.25;99892.09;7659627;32;37690;-70
2022/06/13 21:02:51;;;;;;;2.47;1.35;;;;;;;19.80;56.74;99898.09;7659392;32;37567;-71
2022/06/13 21:07:07;;;;;;;1.48;1.37;;;;;;;19.63;57.05;99907.22;7659245;32;37212;-71
2022/06/13 21:11:23;;;;;;;4.20;1.60;;;;;;;19.41;57.45;99922.06;7659142;32;40140;-71
2022/06/13 21:15:51;;;;;;;1.95;1.65;;;;;;;19.18;57.84;99918.69;7651467;32;40796;-71
2022/06/13 21:20:09;;;;;;;4.15;1.58;;;;;;;19.06;57.81;99924.87;7647479;32;38762;-70